首页
METAR-TAF:

METAR-TAF

机场 :

雅温得-恩西马兰国际机场

雅温得, 喀麦隆

纬度: 03-50N, 经度: 011-31E, 海拔: 751米

当前天气观测

该预报发布于1小时和49分钟前的22:00 UTC
温度 23°C
湿度 89%
气压 1015 hPa
能見度: 8000
多云层高于600英尺
少量云层高于2000英尺, 积雨云.
雷暴

METAR: FKYS 212200Z /////KT 8000 TS BKN006 FEW020CB 23/21 Q1015 NOSIG

时间: 00:49 (23:49 UTC)

预报

该预报发布于49分钟前的23:00 UTC
预报有效从22日的 00点(UTC)到 22日的 24点(UTC)
风速2节,风向多变
能見度: 8000
多云层高于600英尺
少量云层高于2000英尺, 积雨云.
雷暴
短暂存在
从 22日的 01点(UTC)到 22日的 07点(UTC)
能見度: 2500
轻雾
成为
从 22日的 04点(UTC)到 22日的 06点(UTC)
成为
从 22日的 08点(UTC)到 22日的 10点(UTC)
多云层高于1600英尺

TAF: FKYS 212300Z 2200/2224 VRB02KT 8000 TS BKN006 FEW020CB TEMPO 2201/2207 2500 BR BECMG 2204/2206 NSW BECMG 2208/2210 BKN016

超过4000个机场的气象观测和天气预报(METAR&TAF报告)。

可查询的气象台以黄色和红色小点在地图上表示。

将鼠标移到小点上方,可查看气象台名称。

然后点击查看天气观测和预报。

如需切换地图:点击带黑十字的绿色按钮放大地图;点击带横线的绿色按钮缩小地图;或者点击绿色箭头查看邻近地区的地图。


METAR-TAF: